sensor_id;sensor_type;location;lat;lon;timestamp;temperature;humidity
16893;DHT22;8563;52.242;9.098;2024-03-08T00:01:42;2.10;99.90
16893;DHT22;8563;52.242;9.098;2024-03-08T00:04:15;2.10;99.90
16893;DHT22;8563;52.242;9.098;2024-03-08T00:06:48;2.10;99.90
16893;DHT22;8563;52.242;9.098;2024-03-08T00:09:21;2.10;99.90
16893;DHT22;8563;52.242;9.098;2024-03-08T00:11:55;2.00;99.90
16893;DHT22;8563;52.242;9.098;2024-03-08T00:14:27;2.00;99.90
16893;DHT22;8563;52.242;9.098;2024-03-08T00:16:59;1.90;99.90
16893;DHT22;8563;52.242;9.098;2024-03-08T00:19:32;1.90;99.90
16893;DHT22;8563;52.242;9.098;2024-03-08T00:22:04;1.90;99.90
16893;DHT22;8563;52.242;9.098;2024-03-08T00:24:36;1.80;99.90
16893;DHT22;8563;52.242;9.098;2024-03-08T00:27:11;1.80;99.90
16893;DHT22;8563;52.242;9.098;2024-03-08T00:29:43;1.90;99.90
16893;DHT22;8563;52.242;9.098;2024-03-08T00:32:16;1.90;99.90
16893;DHT22;8563;52.242;9.098;2024-03-08T00:34:48;1.80;99.90
16893;DHT22;8563;52.242;9.098;2024-03-08T00:37:23;1.70;99.90
16893;DHT22;8563;52.242;9.098;2024-03-08T00:39:55;1.80;99.90
16893;DHT22;8563;52.242;9.098;2024-03-08T00:42:29;1.90;99.90
16893;DHT22;8563;52.242;9.098;2024-03-08T00:45:01;1.80;99.90
16893;DHT22;8563;52.242;9.098;2024-03-08T00:47:33;1.90;99.90
16893;DHT22;8563;52.242;9.098;2024-03-08T00:50:06;1.90;99.90
16893;DHT22;8563;52.242;9.098;2024-03-08T00:52:39;1.90;99.90
16893;DHT22;8563;52.242;9.098;2024-03-08T00:55:13;1.90;99.90
16893;DHT22;8563;52.242;9.098;2024-03-08T00:57:46;1.90;99.90
16893;DHT22;8563;52.242;9.098;2024-03-08T01:00:19;1.90;99.90
16893;DHT22;8563;52.242;9.098;2024-03-08T01:02:52;1.80;99.90
16893;DHT22;8563;52.242;9.098;2024-03-08T01:05:25;1.90;99.90
16893;DHT22;8563;52.242;9.098;2024-03-08T01:07:57;1.90;99.90
16893;DHT22;8563;52.242;9.098;2024-03-08T01:10:29;1.90;99.90
16893;DHT22;8563;52.242;9.098;2024-03-08T01:13:03;1.90;99.90
16893;DHT22;8563;52.242;9.098;2024-03-08T01:15:36;1.80;99.90
16893;DHT22;8563;52.242;9.098;2024-03-08T01:18:08;1.80;99.90
16893;DHT22;8563;52.242;9.098;2024-03-08T01:20:40;1.80;99.90
16893;DHT22;8563;52.242;9.098;2024-03-08T01:23:13;1.70;99.90
16893;DHT22;8563;52.242;9.098;2024-03-08T01:25:45;1.70;99.90
16893;DHT22;8563;52.242;9.098;2024-03-08T01:28:29;1.70;99.90
16893;DHT22;8563;52.242;9.098;2024-03-08T01:31:02;1.60;99.90
16893;DHT22;8563;52.242;9.098;2024-03-08T01:33:35;1.50;99.90
16893;DHT22;8563;52.242;9.098;2024-03-08T01:36:07;1.50;99.90
16893;DHT22;8563;52.242;9.098;2024-03-08T01:38:40;1.50;99.90
16893;DHT22;8563;52.242;9.098;2024-03-08T01:41:12;1.50;99.90
16893;DHT22;8563;52.242;9.098;2024-03-08T01:43:48;1.50;99.90
16893;DHT22;8563;52.242;9.098;2024-03-08T01:46:22;1.50;99.90
16893;DHT22;8563;52.242;9.098;2024-03-08T01:48:54;1.60;99.90
16893;DHT22;8563;52.242;9.098;2024-03-08T01:51:27;1.60;99.90
16893;DHT22;8563;52.242;9.098;2024-03-08T01:54:02;1.50;99.90
16893;DHT22;8563;52.242;9.098;2024-03-08T01:56:35;1.50;99.90
16893;DHT22;8563;52.242;9.098;2024-03-08T01:59:10;1.50;99.90
16893;DHT22;8563;52.242;9.098;2024-03-08T02:01:43;1.50;99.90
16893;DHT22;8563;52.242;9.098;2024-03-08T02:04:15;1.50;99.90
16893;DHT22;8563;52.242;9.098;2024-03-08T02:06:47;1.40;99.90
16893;DHT22;8563;52.242;9.098;2024-03-08T02:09:20;1.50;99.90
16893;DHT22;8563;52.242;9.098;2024-03-08T02:11:52;1.50;99.90
16893;DHT22;8563;52.242;9.098;2024-03-08T02:14:27;1.50;99.90
16893;DHT22;8563;52.242;9.098;2024-03-08T02:17:00;1.50;99.90
16893;DHT22;8563;52.242;9.098;2024-03-08T02:19:33;1.50;99.90
16893;DHT22;8563;52.242;9.098;2024-03-08T02:22:08;1.50;99.90
16893;DHT22;8563;52.242;9.098;2024-03-08T02:24:41;1.50;99.90
16893;DHT22;8563;52.242;9.098;2024-03-08T02:27:13;1.50;99.90
16893;DHT22;8563;52.242;9.098;2024-03-08T02:29:46;1.40;99.90
16893;DHT22;8563;52.242;9.098;2024-03-08T02:32:18;1.50;99.90
16893;DHT22;8563;52.242;9.098;2024-03-08T02:34:50;1.40;99.90
16893;DHT22;8563;52.242;9.098;2024-03-08T02:37:24;1.40;99.90
16893;DHT22;8563;52.242;9.098;2024-03-08T02:39:56;1.40;99.90
16893;DHT22;8563;52.242;9.098;2024-03-08T02:42:29;1.30;99.90
16893;DHT22;8563;52.242;9.098;2024-03-08T02:45:01;1.20;99.90
16893;DHT22;8563;52.242;9.098;2024-03-08T02:47:33;1.20;99.90
16893;DHT22;8563;52.242;9.098;2024-03-08T02:50:06;1.20;99.90
16893;DHT22;8563;52.242;9.098;2024-03-08T02:52:41;1.20;99.90
16893;DHT22;8563;52.242;9.098;2024-03-08T02:55:14;1.10;99.90
16893;DHT22;8563;52.242;9.098;2024-03-08T02:57:47;1.10;99.90
16893;DHT22;8563;52.242;9.098;2024-03-08T03:00:20;1.10;99.90
16893;DHT22;8563;52.242;9.098;2024-03-08T03:02:52;1.10;99.90
16893;DHT22;8563;52.242;9.098;2024-03-08T03:05:25;1.10;99.90
16893;DHT22;8563;52.242;9.098;2024-03-08T03:07:59;1.10;99.90
16893;DHT22;8563;52.242;9.098;2024-03-08T03:10:31;1.10;99.90
16893;DHT22;8563;52.242;9.098;2024-03-08T03:13:03;1.10;99.90
16893;DHT22;8563;52.242;9.098;2024-03-08T03:15:36;1.10;99.90
16893;DHT22;8563;52.242;9.098;2024-03-08T03:18:08;1.00;99.90
16893;DHT22;8563;52.242;9.098;2024-03-08T03:20:41;0.90;99.90
16893;DHT22;8563;52.242;9.098;2024-03-08T03:23:15;0.90;99.90
16893;DHT22;8563;52.242;9.098;2024-03-08T03:25:51;0.90;99.90
16893;DHT22;8563;52.242;9.098;2024-03-08T03:28:23;0.80;99.90
16893;DHT22;8563;52.242;9.098;2024-03-08T03:30:55;0.70;99.90
16893;DHT22;8563;52.242;9.098;2024-03-08T03:33:29;0.60;99.90
16893;DHT22;8563;52.242;9.098;2024-03-08T03:36:05;0.50;99.90
16893;DHT22;8563;52.242;9.098;2024-03-08T03:38:41;0.60;99.90
16893;DHT22;8563;52.242;9.098;2024-03-08T03:41:13;0.60;99.90
16893;DHT22;8563;52.242;9.098;2024-03-08T03:43:46;0.70;99.90
16893;DHT22;8563;52.242;9.098;2024-03-08T03:46:20;0.80;99.90
16893;DHT22;8563;52.242;9.098;2024-03-08T03:48:52;0.80;99.90
16893;DHT22;8563;52.242;9.098;2024-03-08T03:51:25;0.80;99.90
16893;DHT22;8563;52.242;9.098;2024-03-08T03:53:58;0.80;99.90
16893;DHT22;8563;52.242;9.098;2024-03-08T03:56:31;0.80;99.90
16893;DHT22;8563;52.242;9.098;2024-03-08T03:59:03;0.80;99.90
16893;DHT22;8563;52.242;9.098;2024-03-08T04:01:35;0.80;99.90
16893;DHT22;8563;52.242;9.098;2024-03-08T04:04:07;0.80;99.90
16893;DHT22;8563;52.242;9.098;2024-03-08T04:06:40;0.70;99.90
16893;DHT22;8563;52.242;9.098;2024-03-08T04:09:14;0.70;99.90
16893;DHT22;8563;52.242;9.098;2024-03-08T04:11:46;0.70;99.90
16893;DHT22;8563;52.242;9.098;2024-03-08T04:14:18;0.70;99.90
16893;DHT22;8563;52.242;9.098;2024-03-08T04:16:51;0.60;99.90
16893;DHT22;8563;52.242;9.098;2024-03-08T04:19:23;0.60;99.90
16893;DHT22;8563;52.242;9.098;2024-03-08T04:21:57;0.60;99.90
16893;DHT22;8563;52.242;9.098;2024-03-08T04:24:32;0.70;99.90
16893;DHT22;8563;52.242;9.098;2024-03-08T04:27:05;0.70;99.90
16893;DHT22;8563;52.242;9.098;2024-03-08T04:29:37;0.70;99.90
16893;DHT22;8563;52.242;9.098;2024-03-08T04:32:11;0.60;99.90
16893;DHT22;8563;52.242;9.098;2024-03-08T04:34:44;0.70;99.90
16893;DHT22;8563;52.242;9.098;2024-03-08T04:37:16;0.70;99.90
16893;DHT22;8563;52.242;9.098;2024-03-08T04:39:53;0.70;99.90
16893;DHT22;8563;52.242;9.098;2024-03-08T04:42:26;0.80;99.90
16893;DHT22;8563;52.242;9.098;2024-03-08T04:44:59;0.80;99.90
16893;DHT22;8563;52.242;9.098;2024-03-08T04:47:32;1.00;99.90
16893;DHT22;8563;52.242;9.098;2024-03-08T04:50:05;1.20;99.90
16893;DHT22;8563;52.242;9.098;2024-03-08T04:52:37;1.20;99.90
16893;DHT22;8563;52.242;9.098;2024-03-08T04:55:12;1.30;99.90
16893;DHT22;8563;52.242;9.098;2024-03-08T04:57:44;1.30;99.90
16893;DHT22;8563;52.242;9.098;2024-03-08T05:00:17;1.30;99.90
16893;DHT22;8563;52.242;9.098;2024-03-08T05:02:50;1.30;99.90
16893;DHT22;8563;52.242;9.098;2024-03-08T05:05:24;1.40;99.90
16893;DHT22;8563;52.242;9.098;2024-03-08T05:07:57;1.50;99.90
16893;DHT22;8563;52.242;9.098;2024-03-08T05:10:31;1.40;99.90
16893;DHT22;8563;52.242;9.098;2024-03-08T05:13:03;1.40;99.90
16893;DHT22;8563;52.242;9.098;2024-03-08T05:15:36;1.40;99.90
16893;DHT22;8563;52.242;9.098;2024-03-08T05:18:10;1.40;99.90
16893;DHT22;8563;52.242;9.098;2024-03-08T05:20:45;1.30;99.90
16893;DHT22;8563;52.242;9.098;2024-03-08T05:23:18;1.30;99.90
16893;DHT22;8563;52.242;9.098;2024-03-08T05:25:53;1.30;99.90
16893;DHT22;8563;52.242;9.098;2024-03-08T05:28:25;1.30;99.90
16893;DHT22;8563;52.242;9.098;2024-03-08T05:30:57;1.30;99.90
16893;DHT22;8563;52.242;9.098;2024-03-08T05:33:29;1.30;99.90
16893;DHT22;8563;52.242;9.098;2024-03-08T05:36:03;1.30;99.90
16893;DHT22;8563;52.242;9.098;2024-03-08T05:38:35;1.20;99.90
16893;DHT22;8563;52.242;9.098;2024-03-08T05:41:09;1.20;99.90
16893;DHT22;8563;52.242;9.098;2024-03-08T05:43:42;1.20;99.90
16893;DHT22;8563;52.242;9.098;2024-03-08T05:46:16;1.30;99.90
16893;DHT22;8563;52.242;9.098;2024-03-08T05:48:49;1.20;99.90
16893;DHT22;8563;52.242;9.098;2024-03-08T05:51:24;1.30;99.90
16893;DHT22;8563;52.242;9.098;2024-03-08T05:53:58;1.20;99.90
16893;DHT22;8563;52.242;9.098;2024-03-08T05:56:32;1.20;99.90
16893;DHT22;8563;52.242;9.098;2024-03-08T05:59:04;1.20;99.90
16893;DHT22;8563;52.242;9.098;2024-03-08T06:01:36;1.10;99.90
16893;DHT22;8563;52.242;9.098;2024-03-08T06:04:09;1.20;99.90
16893;DHT22;8563;52.242;9.098;2024-03-08T06:06:41;1.20;99.90
16893;DHT22;8563;52.242;9.098;2024-03-08T06:09:14;1.20;99.90
16893;DHT22;8563;52.242;9.098;2024-03-08T06:11:55;1.20;99.90
16893;DHT22;8563;52.242;9.098;2024-03-08T06:14:28;1.20;99.90
16893;DHT22;8563;52.242;9.098;2024-03-08T06:17:00;1.20;99.90
16893;DHT22;8563;52.242;9.098;2024-03-08T06:19:33;1.30;99.90
16893;DHT22;8563;52.242;9.098;2024-03-08T06:22:06;1.30;99.90
16893;DHT22;8563;52.242;9.098;2024-03-08T06:24:40;1.30;99.90
16893;DHT22;8563;52.242;9.098;2024-03-08T06:27:14;1.40;99.90
16893;DHT22;8563;52.242;9.098;2024-03-08T06:29:47;1.50;99.90
16893;DHT22;8563;52.242;9.098;2024-03-08T06:32:20;1.50;99.90
16893;DHT22;8563;52.242;9.098;2024-03-08T06:34:53;1.60;99.90
16893;DHT22;8563;52.242;9.098;2024-03-08T06:37:26;1.70;99.90
16893;DHT22;8563;52.242;9.098;2024-03-08T06:39:58;1.70;99.90
16893;DHT22;8563;52.242;9.098;2024-03-08T06:42:33;1.80;99.90
16893;DHT22;8563;52.242;9.098;2024-03-08T06:45:06;1.80;99.90
16893;DHT22;8563;52.242;9.098;2024-03-08T06:47:40;1.90;99.90
16893;DHT22;8563;52.242;9.098;2024-03-08T06:50:14;1.90;99.90
16893;DHT22;8563;52.242;9.098;2024-03-08T06:52:46;2.00;99.90
16893;DHT22;8563;52.242;9.098;2024-03-08T06:55:23;2.00;99.90
16893;DHT22;8563;52.242;9.098;2024-03-08T06:57:57;2.00;99.90
16893;DHT22;8563;52.242;9.098;2024-03-08T07:00:29;2.00;99.90
16893;DHT22;8563;52.242;9.098;2024-03-08T07:03:02;2.00;99.90
16893;DHT22;8563;52.242;9.098;2024-03-08T07:05:34;2.00;99.90
16893;DHT22;8563;52.242;9.098;2024-03-08T07:08:06;2.00;99.90
16893;DHT22;8563;52.242;9.098;2024-03-08T07:10:39;2.00;99.90
16893;DHT22;8563;52.242;9.098;2024-03-08T07:13:13;2.00;99.90
16893;DHT22;8563;52.242;9.098;2024-03-08T07:15:46;2.10;99.90
16893;DHT22;8563;52.242;9.098;2024-03-08T07:18:18;2.10;99.90
16893;DHT22;8563;52.242;9.098;2024-03-08T07:20:50;2.20;99.90
16893;DHT22;8563;52.242;9.098;2024-03-08T07:23:23;2.20;99.90
16893;DHT22;8563;52.242;9.098;2024-03-08T07:26:15;2.30;99.90
16893;DHT22;8563;52.242;9.098;2024-03-08T07:28:49;2.40;99.90
16893;DHT22;8563;52.242;9.098;2024-03-08T07:31:21;2.40;99.90
16893;DHT22;8563;52.242;9.098;2024-03-08T07:34:02;2.50;99.90
16893;DHT22;8563;52.242;9.098;2024-03-08T07:36:38;2.60;99.90
16893;DHT22;8563;52.242;9.098;2024-03-08T07:39:10;2.60;99.90
16893;DHT22;8563;52.242;9.098;2024-03-08T07:41:44;2.60;99.90
16893;DHT22;8563;52.242;9.098;2024-03-08T07:44:18;2.70;99.90
16893;DHT22;8563;52.242;9.098;2024-03-08T07:46:50;2.70;99.90
16893;DHT22;8563;52.242;9.098;2024-03-08T07:49:22;2.80;99.90
16893;DHT22;8563;52.242;9.098;2024-03-08T07:51:55;2.90;99.90
16893;DHT22;8563;52.242;9.098;2024-03-08T07:54:27;2.90;99.90
16893;DHT22;8563;52.242;9.098;2024-03-08T07:56:59;3.00;99.90
16893;DHT22;8563;52.242;9.098;2024-03-08T07:59:35;3.10;99.90
16893;DHT22;8563;52.242;9.098;2024-03-08T08:02:07;3.20;99.90
16893;DHT22;8563;52.242;9.098;2024-03-08T08:04:39;3.20;99.90
16893;DHT22;8563;52.242;9.098;2024-03-08T08:07:12;3.30;99.90
16893;DHT22;8563;52.242;9.098;2024-03-08T08:09:45;3.40;99.90
16893;DHT22;8563;52.242;9.098;2024-03-08T08:12:17;3.50;99.90
16893;DHT22;8563;52.242;9.098;2024-03-08T08:14:51;3.60;99.90
16893;DHT22;8563;52.242;9.098;2024-03-08T08:17:23;3.70;99.90
16893;DHT22;8563;52.242;9.098;2024-03-08T08:19:56;3.70;99.90
16893;DHT22;8563;52.242;9.098;2024-03-08T08:22:28;3.60;99.90
16893;DHT22;8563;52.242;9.098;2024-03-08T08:25:00;3.70;99.90
16893;DHT22;8563;52.242;9.098;2024-03-08T08:27:33;3.70;99.90
16893;DHT22;8563;52.242;9.098;2024-03-08T08:30:09;3.80;99.90
16893;DHT22;8563;52.242;9.098;2024-03-08T08:32:42;3.90;99.90
16893;DHT22;8563;52.242;9.098;2024-03-08T08:35:15;4.00;99.90
16893;DHT22;8563;52.242;9.098;2024-03-08T08:37:47;4.10;99.90
16893;DHT22;8563;52.242;9.098;2024-03-08T08:40:19;4.20;99.90
16893;DHT22;8563;52.242;9.098;2024-03-08T08:42:53;4.30;99.90
16893;DHT22;8563;52.242;9.098;2024-03-08T08:45:29;4.30;99.90
16893;DHT22;8563;52.242;9.098;2024-03-08T08:48:02;4.50;99.90
16893;DHT22;8563;52.242;9.098;2024-03-08T08:50:36;4.50;99.90
16893;DHT22;8563;52.242;9.098;2024-03-08T08:53:08;4.50;99.90
16893;DHT22;8563;52.242;9.098;2024-03-08T08:55:41;4.70;99.90
16893;DHT22;8563;52.242;9.098;2024-03-08T08:58:14;4.80;99.90
16893;DHT22;8563;52.242;9.098;2024-03-08T09:00:47;4.80;99.90
16893;DHT22;8563;52.242;9.098;2024-03-08T09:03:21;5.10;99.90
16893;DHT22;8563;52.242;9.098;2024-03-08T09:05:54;5.10;99.90
16893;DHT22;8563;52.242;9.098;2024-03-08T09:08:27;5.20;99.90
16893;DHT22;8563;52.242;9.098;2024-03-08T09:10:59;5.30;99.90
16893;DHT22;8563;52.242;9.098;2024-03-08T09:13:31;5.40;99.90
16893;DHT22;8563;52.242;9.098;2024-03-08T09:16:06;5.60;99.90
16893;DHT22;8563;52.242;9.098;2024-03-08T09:18:38;5.60;99.90
16893;DHT22;8563;52.242;9.098;2024-03-08T09:21:10;5.80;99.90
16893;DHT22;8563;52.242;9.098;2024-03-08T09:23:44;5.80;99.90
16893;DHT22;8563;52.242;9.098;2024-03-08T09:26:16;5.70;99.90
16893;DHT22;8563;52.242;9.098;2024-03-08T09:28:48;5.80;99.90
16893;DHT22;8563;52.242;9.098;2024-03-08T09:31:22;5.80;99.90
16893;DHT22;8563;52.242;9.098;2024-03-08T09:33:54;5.70;99.90
16893;DHT22;8563;52.242;9.098;2024-03-08T09:36:26;5.80;99.90
16893;DHT22;8563;52.242;9.098;2024-03-08T09:38:59;5.80;99.90
16893;DHT22;8563;52.242;9.098;2024-03-08T09:41:31;5.80;99.90
16893;DHT22;8563;52.242;9.098;2024-03-08T09:44:05;5.90;99.90
16893;DHT22;8563;52.242;9.098;2024-03-08T09:46:39;5.90;99.90
16893;DHT22;8563;52.242;9.098;2024-03-08T09:49:11;5.90;99.90
16893;DHT22;8563;52.242;9.098;2024-03-08T09:51:44;6.00;99.90
16893;DHT22;8563;52.242;9.098;2024-03-08T09:54:16;6.10;99.90
16893;DHT22;8563;52.242;9.098;2024-03-08T09:56:52;6.10;99.90
16893;DHT22;8563;52.242;9.098;2024-03-08T09:59:24;6.10;99.90
16893;DHT22;8563;52.242;9.098;2024-03-08T10:02:16;6.10;99.90
16893;DHT22;8563;52.242;9.098;2024-03-08T10:04:49;6.10;99.90
16893;DHT22;8563;52.242;9.098;2024-03-08T10:07:24;6.10;99.90
16893;DHT22;8563;52.242;9.098;2024-03-08T10:09:56;6.20;99.90
16893;DHT22;8563;52.242;9.098;2024-03-08T10:12:29;6.10;99.90
16893;DHT22;8563;52.242;9.098;2024-03-08T10:15:02;6.20;99.90
16893;DHT22;8563;52.242;9.098;2024-03-08T10:17:36;6.20;99.90
16893;DHT22;8563;52.242;9.098;2024-03-08T10:20:14;6.20;99.90
16893;DHT22;8563;52.242;9.098;2024-03-08T10:22:47;6.10;99.90
16893;DHT22;8563;52.242;9.098;2024-03-08T10:25:19;6.30;99.90
16893;DHT22;8563;52.242;9.098;2024-03-08T10:27:51;6.40;99.90
16893;DHT22;8563;52.242;9.098;2024-03-08T10:30:24;6.60;99.90
16893;DHT22;8563;52.242;9.098;2024-03-08T10:32:57;6.70;99.90
16893;DHT22;8563;52.242;9.098;2024-03-08T10:35:30;6.70;99.90
16893;DHT22;8563;52.242;9.098;2024-03-08T10:38:04;6.80;99.90
16893;DHT22;8563;52.242;9.098;2024-03-08T10:40:39;6.90;99.90
16893;DHT22;8563;52.242;9.098;2024-03-08T10:43:18;6.80;99.90
16893;DHT22;8563;52.242;9.098;2024-03-08T10:46:01;6.80;99.90
16893;DHT22;8563;52.242;9.098;2024-03-08T10:48:43;6.90;99.90
16893;DHT22;8563;52.242;9.098;2024-03-08T10:51:16;7.00;99.90
16893;DHT22;8563;52.242;9.098;2024-03-08T10:53:51;6.90;99.90
16893;DHT22;8563;52.242;9.098;2024-03-08T10:56:24;7.00;99.90
16893;DHT22;8563;52.242;9.098;2024-03-08T10:58:58;6.90;99.90
16893;DHT22;8563;52.242;9.098;2024-03-08T11:01:31;7.00;99.90
16893;DHT22;8563;52.242;9.098;2024-03-08T11:04:05;6.90;99.90
16893;DHT22;8563;52.242;9.098;2024-03-08T11:06:45;6.90;99.90
16893;DHT22;8563;52.242;9.098;2024-03-08T11:09:33;7.00;99.90
16893;DHT22;8563;52.242;9.098;2024-03-08T11:12:24;7.10;99.90
16893;DHT22;8563;52.242;9.098;2024-03-08T11:15:02;7.10;99.90
16893;DHT22;8563;52.242;9.098;2024-03-08T11:17:46;6.90;99.90
16893;DHT22;8563;52.242;9.098;2024-03-08T11:20:20;6.90;99.90
16893;DHT22;8563;52.242;9.098;2024-03-08T11:22:54;7.00;99.90
16893;DHT22;8563;52.242;9.098;2024-03-08T11:25:37;7.10;99.90
16893;DHT22;8563;52.242;9.098;2024-03-08T11:28:14;7.00;99.90
16893;DHT22;8563;52.242;9.098;2024-03-08T11:33:54;7.30;99.90
16893;DHT22;8563;52.242;9.098;2024-03-08T11:36:29;7.40;99.90
16893;DHT22;8563;52.242;9.098;2024-03-08T11:39:06;7.60;99.90
16893;DHT22;8563;52.242;9.098;2024-03-08T11:41:45;7.50;99.90
16893;DHT22;8563;52.242;9.098;2024-03-08T11:44:17;7.60;99.90
16893;DHT22;8563;52.242;9.098;2024-03-08T11:46:51;7.60;99.90
16893;DHT22;8563;52.242;9.098;2024-03-08T11:49:23;7.70;99.90
16893;DHT22;8563;52.242;9.098;2024-03-08T11:51:58;7.60;99.90
16893;DHT22;8563;52.242;9.098;2024-03-08T11:54:31;7.60;99.90
16893;DHT22;8563;52.242;9.098;2024-03-08T11:57:05;7.50;99.90
16893;DHT22;8563;52.242;9.098;2024-03-08T11:59:37;7.60;99.90
16893;DHT22;8563;52.242;9.098;2024-03-08T12:02:11;7.60;99.90
16893;DHT22;8563;52.242;9.098;2024-03-08T12:04:46;7.60;99.90
16893;DHT22;8563;52.242;9.098;2024-03-08T12:07:20;7.70;99.90
16893;DHT22;8563;52.242;9.098;2024-03-08T12:10:15;7.70;99.90
16893;DHT22;8563;52.242;9.098;2024-03-08T12:12:49;7.60;99.90
16893;DHT22;8563;52.242;9.098;2024-03-08T12:15:23;7.60;99.90
16893;DHT22;8563;52.242;9.098;2024-03-08T12:17:56;7.60;99.90
16893;DHT22;8563;52.242;9.098;2024-03-08T12:20:29;7.50;99.90
16893;DHT22;8563;52.242;9.098;2024-03-08T12:23:03;7.60;99.90
16893;DHT22;8563;52.242;9.098;2024-03-08T12:25:36;7.70;99.90
16893;DHT22;8563;52.242;9.098;2024-03-08T12:28:11;7.90;99.90
16893;DHT22;8563;52.242;9.098;2024-03-08T12:30:46;7.90;99.90
16893;DHT22;8563;52.242;9.098;2024-03-08T12:33:20;7.70;99.90
16893;DHT22;8563;52.242;9.098;2024-03-08T12:35:53;7.80;99.90
16893;DHT22;8563;52.242;9.098;2024-03-08T12:38:29;7.70;99.90
16893;DHT22;8563;52.242;9.098;2024-03-08T12:41:02;7.90;99.90
16893;DHT22;8563;52.242;9.098;2024-03-08T12:43:35;8.00;99.90
16893;DHT22;8563;52.242;9.098;2024-03-08T12:46:07;7.90;99.90
16893;DHT22;8563;52.242;9.098;2024-03-08T12:48:40;7.90;99.90
16893;DHT22;8563;52.242;9.098;2024-03-08T12:51:12;8.00;99.90
16893;DHT22;8563;52.242;9.098;2024-03-08T12:53:46;8.00;99.90
16893;DHT22;8563;52.242;9.098;2024-03-08T12:56:28;8.00;99.90
16893;DHT22;8563;52.242;9.098;2024-03-08T12:59:01;8.00;99.90
16893;DHT22;8563;52.242;9.098;2024-03-08T13:01:35;8.00;99.90
16893;DHT22;8563;52.242;9.098;2024-03-08T13:04:08;7.90;99.90
16893;DHT22;8563;52.242;9.098;2024-03-08T13:06:42;8.00;99.90
16893;DHT22;8563;52.242;9.098;2024-03-08T13:09:16;8.00;99.90
16893;DHT22;8563;52.242;9.098;2024-03-08T13:11:51;8.10;99.90
16893;DHT22;8563;52.242;9.098;2024-03-08T13:14:25;8.20;99.90
16893;DHT22;8563;52.242;9.098;2024-03-08T13:16:58;8.20;99.90
16893;DHT22;8563;52.242;9.098;2024-03-08T13:19:30;8.10;99.90
16893;DHT22;8563;52.242;9.098;2024-03-08T13:22:03;8.00;99.90
16893;DHT22;8563;52.242;9.098;2024-03-08T13:24:38;8.00;99.90
16893;DHT22;8563;52.242;9.098;2024-03-08T13:27:12;8.00;99.90
16893;DHT22;8563;52.242;9.098;2024-03-08T13:29:50;8.00;99.90
16893;DHT22;8563;52.242;9.098;2024-03-08T13:32:22;8.00;99.90
16893;DHT22;8563;52.242;9.098;2024-03-08T13:34:56;8.00;99.90
16893;DHT22;8563;52.242;9.098;2024-03-08T13:37:28;8.00;99.90
16893;DHT22;8563;52.242;9.098;2024-03-08T13:40:02;8.20;99.90
16893;DHT22;8563;52.242;9.098;2024-03-08T13:42:37;8.20;99.90
16893;DHT22;8563;52.242;9.098;2024-03-08T13:45:10;8.20;99.90
16893;DHT22;8563;52.242;9.098;2024-03-08T13:48:03;8.20;99.90
16893;DHT22;8563;52.242;9.098;2024-03-08T13:50:54;8.20;99.90
16893;DHT22;8563;52.242;9.098;2024-03-08T13:53:28;8.20;99.90
16893;DHT22;8563;52.242;9.098;2024-03-08T13:56:02;8.20;99.90
16893;DHT22;8563;52.242;9.098;2024-03-08T13:58:34;8.20;99.90
16893;DHT22;8563;52.242;9.098;2024-03-08T14:01:07;8.20;99.90
16893;DHT22;8563;52.242;9.098;2024-03-08T14:03:42;8.20;99.90
16893;DHT22;8563;52.242;9.098;2024-03-08T14:06:14;8.20;99.90
16893;DHT22;8563;52.242;9.098;2024-03-08T14:08:46;8.20;99.90
16893;DHT22;8563;52.242;9.098;2024-03-08T14:11:20;8.30;99.90
16893;DHT22;8563;52.242;9.098;2024-03-08T14:13:54;8.40;99.90
16893;DHT22;8563;52.242;9.098;2024-03-08T14:16:26;8.30;99.90
16893;DHT22;8563;52.242;9.098;2024-03-08T14:18:59;8.30;99.90
16893;DHT22;8563;52.242;9.098;2024-03-08T14:21:36;8.40;99.90
16893;DHT22;8563;52.242;9.098;2024-03-08T14:24:10;8.30;99.90
16893;DHT22;8563;52.242;9.098;2024-03-08T14:26:44;8.30;99.90
16893;DHT22;8563;52.242;9.098;2024-03-08T14:29:17;8.40;99.90
16893;DHT22;8563;52.242;9.098;2024-03-08T14:31:50;8.50;99.90
16893;DHT22;8563;52.242;9.098;2024-03-08T14:34:22;8.50;99.90
16893;DHT22;8563;52.242;9.098;2024-03-08T14:36:57;8.50;99.90
16893;DHT22;8563;52.242;9.098;2024-03-08T14:39:30;8.50;99.90
16893;DHT22;8563;52.242;9.098;2024-03-08T14:42:06;8.50;99.90
16893;DHT22;8563;52.242;9.098;2024-03-08T14:44:39;8.40;99.90
16893;DHT22;8563;52.242;9.098;2024-03-08T14:47:12;8.40;99.90
16893;DHT22;8563;52.242;9.098;2024-03-08T14:49:44;8.50;99.90
16893;DHT22;8563;52.242;9.098;2024-03-08T14:52:19;8.50;99.90
16893;DHT22;8563;52.242;9.098;2024-03-08T14:55:00;8.40;99.90
16893;DHT22;8563;52.242;9.098;2024-03-08T14:57:35;8.40;99.90
16893;DHT22;8563;52.242;9.098;2024-03-08T15:00:08;8.50;99.90
16893;DHT22;8563;52.242;9.098;2024-03-08T15:02:47;8.50;99.90
16893;DHT22;8563;52.242;9.098;2024-03-08T15:05:20;8.50;99.90
16893;DHT22;8563;52.242;9.098;2024-03-08T15:07:57;8.40;99.90
16893;DHT22;8563;52.242;9.098;2024-03-08T15:10:31;8.40;99.90
16893;DHT22;8563;52.242;9.098;2024-03-08T15:13:05;8.30;99.90
16893;DHT22;8563;52.242;9.098;2024-03-08T15:15:51;8.40;99.90
16893;DHT22;8563;52.242;9.098;2024-03-08T15:18:25;8.30;99.90
16893;DHT22;8563;52.242;9.098;2024-03-08T15:21:02;8.40;99.90
16893;DHT22;8563;52.242;9.098;2024-03-08T15:23:37;8.30;99.90
16893;DHT22;8563;52.242;9.098;2024-03-08T15:26:14;8.30;99.90
16893;DHT22;8563;52.242;9.098;2024-03-08T15:28:48;8.30;99.90
16893;DHT22;8563;52.242;9.098;2024-03-08T15:31:22;8.20;99.90
16893;DHT22;8563;52.242;9.098;2024-03-08T15:33:57;8.20;99.90
16893;DHT22;8563;52.242;9.098;2024-03-08T15:36:31;8.20;99.90
16893;DHT22;8563;52.242;9.098;2024-03-08T15:39:04;8.20;99.90
16893;DHT22;8563;52.242;9.098;2024-03-08T15:41:40;8.20;99.90
16893;DHT22;8563;52.242;9.098;2024-03-08T15:44:16;8.20;99.90
16893;DHT22;8563;52.242;9.098;2024-03-08T15:46:48;8.10;99.90
16893;DHT22;8563;52.242;9.098;2024-03-08T15:49:20;8.10;99.90
16893;DHT22;8563;52.242;9.098;2024-03-08T15:51:53;8.00;99.90
16893;DHT22;8563;52.242;9.098;2024-03-08T15:54:25;8.00;99.90
16893;DHT22;8563;52.242;9.098;2024-03-08T15:56:57;8.00;99.90
16893;DHT22;8563;52.242;9.098;2024-03-08T15:59:31;8.00;99.90
16893;DHT22;8563;52.242;9.098;2024-03-08T16:02:07;7.90;99.90
16893;DHT22;8563;52.242;9.098;2024-03-08T16:04:40;7.90;99.90
16893;DHT22;8563;52.242;9.098;2024-03-08T16:07:12;7.90;99.90
16893;DHT22;8563;52.242;9.098;2024-03-08T16:09:44;7.90;99.90
16893;DHT22;8563;52.242;9.098;2024-03-08T16:12:16;7.90;99.90
16893;DHT22;8563;52.242;9.098;2024-03-08T16:14:50;7.80;99.90
16893;DHT22;8563;52.242;9.098;2024-03-08T16:17:23;7.70;99.90
16893;DHT22;8563;52.242;9.098;2024-03-08T16:19:55;7.70;99.90
16893;DHT22;8563;52.242;9.098;2024-03-08T16:22:27;7.70;99.90
16893;DHT22;8563;52.242;9.098;2024-03-08T16:25:01;7.60;99.90
16893;DHT22;8563;52.242;9.098;2024-03-08T16:27:35;7.60;99.90
16893;DHT22;8563;52.242;9.098;2024-03-08T16:30:09;7.60;99.90
16893;DHT22;8563;52.242;9.098;2024-03-08T16:32:46;7.50;99.90
16893;DHT22;8563;52.242;9.098;2024-03-08T16:35:22;7.50;99.90
16893;DHT22;8563;52.242;9.098;2024-03-08T16:37:54;7.40;99.90
16893;DHT22;8563;52.242;9.098;2024-03-08T16:40:26;7.40;99.90
16893;DHT22;8563;52.242;9.098;2024-03-08T16:42:59;7.30;99.90
16893;DHT22;8563;52.242;9.098;2024-03-08T16:45:33;7.30;99.90
16893;DHT22;8563;52.242;9.098;2024-03-08T16:48:06;7.20;99.90